Time;durP1;ratioP1;P1;durP2;ratioP2;P2;SDS_P1;SDS_P2;PMS_P1;PMS_P2;Temp;Humidity;BMP_temperature;BMP_pressure;BME280_temperature;BME280_humidity;BME280_pressure;Samples;Min_cycle;Max_cycle;Signal;HPM_P1;HPM_P2
2022/02/22 03:55:14;;;;;;;42.15;5.30;;;3.10;99.90;;;;;;4958214;28;20035;-87
2022/02/22 03:57:40;;;;;;;46.38;5.57;;;3.10;99.90;;;;;;4961043;28;20055;-88
2022/02/22 04:00:13;;;;;;;45.08;4.60;;;3.00;99.90;;;;;;4916325;28;20534;-88
2022/02/22 04:02:39;;;;;;;;;;;3.00;99.90;;;;;;4948764;28;20164;-88
2022/02/22 04:05:05;;;;;;;45.75;5.10;;;3.00;99.90;;;;;;4947345;28;19942;-87
2022/02/22 04:07:32;;;;;;;31.65;5.18;;;3.00;99.90;;;;;;4937285;28;20131;-88
2022/02/22 04:09:58;;;;;;;37.78;4.30;;;3.00;99.90;;;;;;4942502;28;20494;-88
2022/02/22 04:12:24;;;;;;;37.00;5.35;;;3.00;99.90;;;;;;4933352;28;20433;-88
2022/02/22 04:14:49;;;;;;;49.67;6.15;;;2.90;99.90;;;;;;4913546;28;20043;-88
2022/02/22 04:17:15;;;;;;;42.83;5.05;;;3.00;99.90;;;;;;4946280;28;20117;-88
2022/02/22 04:19:41;;;;;;;38.13;5.22;;;3.00;99.90;;;;;;4927510;28;20498;-88
2022/02/22 04:22:06;;;;;;;44.95;4.90;;;3.00;99.90;;;;;;4934421;28;20642;-88
2022/02/22 04:24:33;;;;;;;45.35;5.07;;;2.90;99.90;;;;;;4933669;28;20371;-88
2022/02/22 04:26:59;;;;;;;23.42;3.88;;;2.90;99.90;;;;;;4929308;28;20046;-87
2022/02/22 04:29:25;;;;;;;45.70;4.70;;;2.90;99.90;;;;;;4926380;28;20038;-87
2022/02/22 04:31:50;;;;;;;34.55;4.63;;;2.80;99.90;;;;;;4929781;28;20065;-87
2022/02/22 04:34:16;;;;;;;45.95;6.00;;;2.80;99.90;;;;;;4932741;28;20062;-88
2022/02/22 04:36:42;;;;;;;35.53;4.95;;;2.80;99.90;;;;;;4925606;28;20391;-87
2022/02/22 04:39:09;;;;;;;42.63;5.90;;;2.80;99.90;;;;;;4933254;28;20457;-87
2022/02/22 04:41:34;;;;;;;38.63;4.80;;;2.80;99.90;;;;;;4921076;28;20106;-89
2022/02/22 04:44:00;;;;;;;47.80;5.07;;;2.80;99.90;;;;;;4930848;28;20038;-87
2022/02/22 04:46:26;;;;;;;41.42;4.68;;;2.90;99.90;;;;;;4944921;28;20042;-88
2022/02/22 04:48:52;;;;;;;60.13;4.78;;;2.90;99.90;;;;;;4929750;28;20547;-87
2022/02/22 04:51:17;;;;;;;34.45;4.68;;;2.90;99.90;;;;;;4930917;28;20042;-88
2022/02/22 04:53:43;;;;;;;50.10;5.20;;;2.90;99.90;;;;;;4919647;28;20047;-88
2022/02/22 04:56:09;;;;;;;63.90;5.10;;;2.90;99.90;;;;;;4933661;28;20416;-88
2022/02/22 04:58:34;;;;;;;42.70;5.72;;;3.00;99.90;;;;;;4931736;28;20058;-87
2022/02/22 05:01:00;;;;;;;34.42;4.40;;;3.00;99.90;;;;;;4944617;28;20637;-87
2022/02/22 05:03:26;;;;;;;44.95;5.07;;;3.00;99.90;;;;;;4930164;28;20039;-87
2022/02/22 05:05:54;;;;;;;37.42;4.28;;;3.00;99.90;;;;;;4917577;28;20034;-87
2022/02/22 05:08:20;;;;;;;41.88;5.30;;;3.00;99.90;;;;;;4939910;28;20034;-88
2022/02/22 05:10:47;;;;;;;37.08;4.30;;;3.00;99.90;;;;;;4933461;28;20486;-87
2022/02/22 05:13:13;;;;;;;42.80;5.10;;;3.00;99.90;;;;;;4930416;28;20030;-87
2022/02/22 05:15:39;;;;;;;54.60;5.95;;;3.00;99.90;;;;;;4934317;28;20049;-88
2022/02/22 05:18:05;;;;;;;41.63;4.75;;;3.00;99.90;;;;;;4940310;28;20034;-88
2022/02/22 05:20:31;;;;;;;45.38;5.10;;;3.00;99.90;;;;;;4931136;28;20043;-88
2022/02/22 05:22:58;;;;;;;45.97;5.15;;;3.00;99.90;;;;;;4931865;28;20105;-87
2022/02/22 05:25:24;;;;;;;40.28;5.38;;;3.10;99.90;;;;;;4927721;28;20043;-87
2022/02/22 05:27:50;;;;;;;44.97;5.45;;;3.10;99.90;;;;;;4948596;28;20035;-87
2022/02/22 05:30:17;;;;;;;43.92;4.93;;;3.10;99.90;;;;;;4913022;28;20039;-87
2022/02/22 05:32:44;;;;;;;33.92;4.43;;;3.10;99.90;;;;;;4927274;28;20063;-87
2022/02/22 05:35:12;;;;;;;48.53;5.03;;;3.10;99.90;;;;;;4945888;28;20201;-87
2022/02/22 05:37:38;;;;;;;37.63;5.00;;;3.10;99.90;;;;;;4947281;28;20533;-88
2022/02/22 05:40:06;;;;;;;42.17;5.38;;;3.10;99.90;;;;;;4943364;28;20214;-87
2022/02/22 05:42:33;;;;;;;39.58;5.40;;;3.10;99.90;;;;;;4951062;28;20046;-87
2022/02/22 05:45:00;;;;;;;52.25;5.40;;;3.10;99.90;;;;;;4944992;28;20074;-87
2022/02/22 05:47:27;;;;;;;41.88;5.18;;;3.10;99.90;;;;;;4950141;28;20034;-87
2022/02/22 05:49:53;;;;;;;47.83;5.65;;;3.10;99.90;;;;;;4927685;28;20070;-87
2022/02/22 05:52:19;;;;;;;30.98;4.38;;;3.10;99.90;;;;;;4938238;28;20068;-87
2022/02/22 05:54:46;;;;;;;42.08;4.85;;;3.10;99.90;;;;;;4933819;28;20082;-88
2022/02/22 05:57:13;;;;;;;38.40;4.40;;;3.00;99.90;;;;;;4926974;28;20039;-87
2022/02/22 05:59:38;;;;;;;40.33;4.10;;;2.90;99.90;;;;;;4929828;28;20051;-87
2022/02/22 06:02:04;;;;;;;43.03;5.00;;;2.90;99.90;;;;;;4950026;28;20061;-86
2022/02/22 06:04:30;;;;;;;39.33;5.28;;;2.90;99.90;;;;;;4949274;28;20056;-87
2022/02/22 06:06:56;;;;;;;41.35;5.25;;;2.90;99.90;;;;;;4937265;28;20038;-88
2022/02/22 06:09:23;;;;;;;41.97;5.32;;;2.90;99.90;;;;;;4928379;29;20098;-87
2022/02/22 06:11:49;;;;;;;42.60;5.82;;;2.90;99.90;;;;;;4945429;28;20121;-87
2022/02/22 06:14:15;;;;;;;57.65;5.30;;;2.90;99.90;;;;;;4945336;28;20038;-87
2022/02/22 06:16:41;;;;;;;34.97;4.60;;;2.80;99.90;;;;;;4923588;28;20149;-87
2022/02/22 06:19:07;;;;;;;40.30;4.97;;;2.90;99.90;;;;;;4948331;28;20082;-87
2022/02/22 06:21:33;;;;;;;43.08;4.35;;;2.90;99.90;;;;;;4943514;28;20049;-86
2022/02/22 06:23:59;;;;;;;35.67;4.57;;;2.90;99.90;;;;;;4929991;28;20058;-86
2022/02/22 06:26:25;;;;;;;55.67;5.65;;;2.80;99.90;;;;;;4935345;28;20042;-87
2022/02/22 06:28:51;;;;;;;45.35;4.70;;;2.80;99.90;;;;;;4964205;28;20453;-87
2022/02/22 06:31:17;;;;;;;28.73;3.85;;;2.80;99.90;;;;;;4943208;28;20117;-87
2022/02/22 06:33:43;;;;;;;44.42;5.00;;;2.80;99.90;;;;;;4938776;28;20198;-87
2022/02/22 06:36:09;;;;;;;38.08;4.38;;;2.80;99.90;;;;;;4942350;28;20058;-87
2022/02/22 06:38:35;;;;;;;44.58;5.63;;;2.80;99.90;;;;;;4949447;28;20074;-87
2022/02/22 06:41:01;;;;;;;49.40;5.22;;;2.70;99.90;;;;;;4947758;28;20129;-86
2022/02/22 06:43:27;;;;;;;43.97;5.07;;;2.70;99.90;;;;;;4919148;28;20501;-87
2022/02/22 06:45:53;;;;;;;51.58;5.75;;;2.70;99.90;;;;;;4933542;28;20047;-87
2022/02/22 06:48:18;;;;;;;51.13;5.50;;;2.70;99.90;;;;;;4931796;28;20077;-87
2022/02/22 06:50:44;;;;;;;50.90;5.78;;;2.70;99.90;;;;;;4928591;29;20133;-86
2022/02/22 06:53:11;;;;;;;54.88;5.47;;;2.70;99.90;;;;;;4918479;28;20107;-88
2022/02/22 06:55:40;;;;;;;48.63;5.10;;;2.70;99.90;;;;;;4942069;28;20049;-87
2022/02/22 06:58:10;;;;;;;45.45;5.05;;;2.70;99.90;;;;;;4941790;28;20416;-87
2022/02/22 07:00:37;;;;;;;63.72;5.60;;;2.70;99.90;;;;;;4925411;28;20035;-87
2022/02/22 07:03:05;;;;;;;54.13;6.50;;;2.80;99.90;;;;;;4950452;28;20034;-87
2022/02/22 07:05:35;;;;;;;74.40;7.32;;;2.80;99.90;;;;;;4954032;28;20054;-88
2022/02/22 07:08:01;;;;;;;52.60;4.78;;;2.80;99.90;;;;;;4930085;28;20038;-87
2022/02/22 07:10:28;;;;;;;46.17;4.68;;;2.80;99.90;;;;;;4941778;28;20030;-87
2022/02/22 07:12:54;;;;;;;48.63;5.40;;;2.80;99.90;;;;;;4944872;28;20043;-87
2022/02/22 07:15:20;;;;;;;46.78;4.97;;;2.90;99.90;;;;;;4929382;28;20039;-87
2022/02/22 07:17:55;;;;;;;46.05;6.18;;;3.00;99.90;;;;;;4927519;28;20069;-86
2022/02/22 07:20:22;;;;;;;63.47;5.78;;;2.90;99.90;;;;;;4948968;28;20130;-87
2022/02/22 07:22:48;;;;;;;57.70;7.20;;;3.00;99.90;;;;;;4950472;28;20041;-86
2022/02/22 07:25:16;;;;;;;50.47;5.43;;;3.00;99.90;;;;;;4945093;28;20437;-86
2022/02/22 07:27:44;;;;;;;58.70;5.70;;;3.10;99.90;;;;;;4932787;28;20068;-87
2022/02/22 07:30:12;;;;;;;55.95;5.40;;;3.20;99.90;;;;;;4931331;28;20039;-87
2022/02/22 07:32:38;;;;;;;55.63;5.57;;;3.30;99.90;;;;;;4945863;28;20039;-86
2022/02/22 07:35:05;;;;;;;47.55;6.85;;;3.30;99.90;;;;;;4962086;28;20061;-87
2022/02/22 07:37:31;;;;;;;44.17;5.53;;;3.40;99.90;;;;;;4938462;28;20078;-87
2022/02/22 07:39:58;;;;;;;54.10;5.72;;;3.50;99.90;;;;;;4934705;28;20383;-86
2022/02/22 07:42:24;;;;;;;50.45;6.13;;;3.50;99.90;;;;;;4945784;28;20048;-86
2022/02/22 07:44:50;;;;;;;48.65;5.22;;;3.60;99.90;;;;;;4940351;28;20406;-86
2022/02/22 07:47:17;;;;;;;55.90;6.13;;;3.70;99.90;;;;;;4949886;28;20039;-87
2022/02/22 07:49:44;;;;;;;49.05;5.80;;;3.70;99.90;;;;;;4919653;29;20454;-86
2022/02/22 07:52:10;;;;;;;50.58;6.03;;;3.80;99.90;;;;;;4930821;28;20762;-87
2022/02/22 07:54:36;;;;;;;56.60;6.10;;;3.80;99.90;;;;;;4925075;29;20081;-87
2022/02/22 07:57:02;;;;;;;57.75;6.00;;;3.80;99.90;;;;;;4935542;28;20062;-87
2022/02/22 07:59:28;;;;;;;42.40;5.55;;;3.90;99.90;;;;;;4921073;28;20097;-85
2022/02/22 08:01:54;;;;;;;49.17;5.50;;;3.90;99.90;;;;;;4913066;28;20047;-86
2022/02/22 08:04:20;;;;;;;61.53;6.47;;;3.90;99.90;;;;;;4922564;28;20089;-86
2022/02/22 08:06:46;;;;;;;46.00;5.13;;;4.00;99.90;;;;;;4928906;28;20039;-86
2022/02/22 08:09:12;;;;;;;43.17;6.80;;;4.00;99.90;;;;;;4926281;28;20046;-86
2022/02/22 08:11:38;;;;;;;49.25;5.93;;;4.00;99.90;;;;;;4948073;28;20125;-86
2022/02/22 08:14:05;;;;;;;42.25;5.03;;;4.20;99.90;;;;;;4935491;28;20050;-86
2022/02/22 08:16:31;;;;;;;45.35;5.25;;;4.10;99.90;;;;;;4933366;28;20130;-86
2022/02/22 08:18:57;;;;;;;39.88;4.68;;;4.20;99.90;;;;;;4936278;28;20141;-87
2022/02/22 08:21:23;;;;;;;42.13;4.38;;;4.20;99.90;;;;;;4946390;28;20035;-86
2022/02/22 08:23:49;;;;;;;44.90;5.10;;;4.30;99.90;;;;;;4929566;28;20501;-85
2022/02/22 08:26:16;;;;;;;49.47;5.72;;;4.30;99.90;;;;;;4946942;28;20031;-85
2022/02/22 08:28:43;;;;;;;43.40;5.75;;;4.40;99.90;;;;;;4931523;28;20038;-86
2022/02/22 08:31:09;;;;;;;45.25;4.80;;;4.40;99.90;;;;;;4938565;28;20036;-86
2022/02/22 08:33:35;;;;;;;36.70;6.07;;;4.40;99.90;;;;;;4934509;28;20046;-86
2022/02/22 08:36:01;;;;;;;49.03;6.45;;;4.60;99.90;;;;;;4921107;28;20039;-86
2022/02/22 08:38:27;;;;;;;34.25;4.85;;;4.70;99.90;;;;;;4945123;28;20053;-87
2022/02/22 08:40:52;;;;;;;38.25;5.30;;;4.80;99.90;;;;;;4942881;28;20085;-87
2022/02/22 08:43:19;;;;;;;38.28;5.28;;;4.90;99.90;;;;;;4931254;28;20236;-86
2022/02/22 08:45:45;;;;;;;36.70;5.50;;;5.00;99.90;;;;;;4931603;28;20054;-87
2022/02/22 08:48:12;;;;;;;43.88;5.25;;;5.00;99.90;;;;;;4937263;28;20035;-86
2022/02/22 08:50:38;;;;;;;41.55;4.93;;;5.00;99.90;;;;;;4964565;28;20145;-87
2022/02/22 08:53:04;;;;;;;42.60;5.18;;;5.10;99.90;;;;;;4927714;28;20043;-87
2022/02/22 08:55:30;;;;;;;36.25;4.68;;;5.20;99.90;;;;;;4944662;28;20050;-87
2022/02/22 08:57:58;;;;;;;39.85;4.82;;;5.20;99.90;;;;;;4917004;28;20039;-86
2022/02/22 09:00:25;;;;;;;40.72;5.30;;;5.30;99.90;;;;;;4930060;28;20030;-87
2022/02/22 09:02:53;;;;;;;43.17;5.30;;;5.40;99.90;;;;;;4941025;28;20151;-87
2022/02/22 09:05:20;;;;;;;38.80;4.80;;;5.50;99.90;;;;;;4945908;28;20039;-87
2022/02/22 09:07:46;;;;;;;34.90;4.68;;;5.60;99.90;;;;;;4942914;28;20066;-87
2022/02/22 09:10:13;;;;;;;37.60;4.97;;;5.70;99.90;;;;;;4940656;28;20906;-87
2022/02/22 09:12:40;;;;;;;31.25;5.05;;;5.70;99.90;;;;;;4922665;28;20074;-86
2022/02/22 09:15:08;;;;;;;29.58;5.55;;;5.80;99.90;;;;;;4927197;28;20053;-86
2022/02/22 09:17:34;;;;;;;45.33;5.93;;;5.80;99.90;;;;;;4947708;28;20050;-87
2022/02/22 09:20:02;;;;;;;41.92;4.78;;;5.80;99.90;;;;;;4942194;28;20050;-87
2022/02/22 09:22:28;;;;;;;40.40;5.15;;;5.80;99.90;;;;;;4927440;28;20202;-87
2022/02/22 09:24:54;;;;;;;33.15;5.47;;;5.90;99.90;;;;;;4928077;28;20050;-86
2022/02/22 09:27:19;;;;;;;38.33;5.13;;;6.00;99.90;;;;;;4923954;28;20118;-87
2022/02/22 09:29:46;;;;;;;35.45;5.15;;;6.00;99.90;;;;;;4948164;28;20494;-87
2022/02/22 09:32:12;;;;;;;31.02;4.60;;;6.00;99.90;;;;;;4930842;28;20129;-87
2022/02/22 09:34:38;;;;;;;31.92;4.43;;;6.00;99.90;;;;;;4929718;28;20530;-87
2022/02/22 09:37:05;;;;;;;34.88;4.60;;;6.00;99.90;;;;;;4931652;28;20039;-86
2022/02/22 09:39:31;;;;;;;35.35;5.22;;;6.10;99.90;;;;;;4962220;23;20220;-87
2022/02/22 09:41:58;;;;;;;28.00;4.38;;;6.10;99.90;;;;;;4950122;28;20101;-87
2022/02/22 09:44:24;;;;;;;27.17;4.50;;;6.10;99.90;;;;;;4965265;28;20516;-90
2022/02/22 09:46:51;;;;;;;23.55;5.13;;;6.20;99.90;;;;;;4950223;28;20207;-87
2022/02/22 09:49:17;;;;;;;28.30;4.80;;;6.20;99.90;;;;;;4968928;28;20031;-88
2022/02/22 09:51:43;;;;;;;43.20;5.20;;;6.20;99.90;;;;;;4956788;28;20467;-88
2022/02/22 09:54:10;;;;;;;30.27;4.72;;;6.20;99.90;;;;;;4934214;28;20054;-87
2022/02/22 09:56:43;;;;;;;31.70;5.22;;;6.30;99.90;;;;;;4920239;28;20038;-87
2022/02/22 09:59:11;;;;;;;34.88;5.78;;;6.30;99.90;;;;;;4950576;28;20489;-88
2022/02/22 10:01:41;;;;;;;31.85;6.05;;;6.30;99.90;;;;;;4966927;28;20078;-88
2022/02/22 10:04:07;;;;;;;31.27;6.22;;;6.30;99.90;;;;;;4948443;28;20118;-90
2022/02/22 10:06:34;;;;;;;37.40;6.85;;;6.40;99.90;;;;;;4964999;28;20529;-88
2022/02/22 10:09:00;;;;;;;37.13;6.80;;;6.40;99.90;;;;;;4935887;28;20347;-88
2022/02/22 10:11:26;;;;;;;29.23;6.57;;;6.50;99.90;;;;;;4950361;28;20101;-87
2022/02/22 10:13:52;;;;;;;41.22;6.65;;;6.50;99.90;;;;;;4966967;28;20043;-89
2022/02/22 10:16:18;;;;;;;38.67;6.63;;;6.60;99.90;;;;;;4951197;28;20043;-89
2022/02/22 10:18:48;;;;;;;39.15;8.40;;;6.70;99.90;;;;;;4928363;28;20114;-90
2022/02/22 10:21:14;;;;;;;38.25;6.70;;;6.70;99.90;;;;;;4935370;28;20421;-88
2022/02/22 10:23:40;;;;;;;35.97;6.68;;;6.70;99.90;;;;;;4949362;28;20481;-88
2022/02/22 10:26:06;;;;;;;53.33;8.55;;;6.80;99.90;;;;;;4948015;28;20078;-87
2022/02/22 10:28:31;;;;;;;35.80;6.80;;;6.80;99.90;;;;;;4932580;28;20101;-87
2022/02/22 10:30:57;;;;;;;38.63;7.28;;;6.80;99.90;;;;;;4932443;28;20121;-90
2022/02/22 10:33:25;;;;;;;40.88;7.53;;;6.90;99.90;;;;;;4935505;28;20042;-87
2022/02/22 10:36:04;;;;;;;32.63;6.47;;;6.90;99.90;;;;;;4946082;28;20039;-87
2022/02/22 10:38:32;;;;;;;31.00;7.32;;;7.00;99.90;;;;;;4965119;28;20163;-90
2022/02/22 10:41:03;;;;;;;41.10;7.65;;;7.00;99.90;;;;;;4954099;28;20130;-87
2022/02/22 10:43:34;;;;;;;44.33;6.65;;;7.10;99.90;;;;;;4967275;28;20051;-88
2022/02/22 10:46:05;;;;;;;34.53;6.93;;;7.10;99.90;;;;;;4960480;28;20042;-87
2022/02/22 10:48:34;;;;;;;44.13;7.80;;;7.20;99.90;;;;;;4968357;28;20090;-87
2022/02/22 10:51:02;;;;;;;36.03;7.90;;;7.20;99.90;;;;;;4954883;28;20568;-87
2022/02/22 10:53:37;;;;;;;42.78;8.07;;;7.20;99.90;;;;;;4952002;28;20070;-88
2022/02/22 10:56:09;;;;;;;41.75;7.05;;;7.30;99.90;;;;;;4969610;28;20035;-88
2022/02/22 10:58:45;;;;;;;37.63;7.90;;;7.30;99.90;;;;;;4968428;28;20046;-89
2022/02/22 11:01:23;;;;;;;38.45;7.30;;;7.30;99.90;;;;;;4952270;28;20520;-87
2022/02/22 11:03:50;;;;;;;37.00;8.20;;;7.30;99.90;;;;;;4984353;28;20039;-87
2022/02/22 11:06:16;;;;;;;33.58;8.05;;;7.30;99.90;;;;;;4952583;28;20031;-87
2022/02/22 11:08:46;;;;;;;39.13;6.93;;;7.30;99.90;;;;;;4969378;28;20247;-89
2022/02/22 11:11:39;;;;;;;36.10;7.22;;;7.30;99.90;;;;;;4951108;28;20041;-89
2022/02/22 11:14:30;;;;;;;37.17;6.88;;;7.30;99.90;;;;;;4965262;28;20522;-87
2022/02/22 11:17:00;;;;;;;34.08;6.75;;;7.30;99.90;;;;;;4959956;28;20129;-88
2022/02/22 11:19:35;;;;;;;36.80;7.63;;;7.30;99.90;;;;;;4969544;28;20089;-89
2022/02/22 11:22:15;;;;;;;27.00;6.55;;;7.40;99.90;;;;;;4962865;28;20035;-87
2022/02/22 11:24:48;;;;;;;27.95;6.05;;;7.40;99.90;;;;;;4973815;28;20039;-89
2022/02/22 11:27:38;;;;;;;36.90;6.65;;;7.40;99.90;;;;;;4972389;28;20036;-88
2022/02/22 11:30:09;;;;;;;31.58;6.97;;;7.40;99.90;;;;;;4955548;28;20035;-87
2022/02/22 11:32:36;;;;;;;41.17;7.22;;;7.40;99.90;;;;;;4968047;28;20046;-89
2022/02/22 11:35:10;;;;;;;36.10;6.93;;;7.40;99.90;;;;;;4957450;28;20043;-87
2022/02/22 11:37:36;;;;;;;39.15;6.88;;;7.40;99.90;;;;;;4957557;28;20043;-87
2022/02/22 11:40:05;;;;;;;42.15;7.05;;;7.40;99.90;;;;;;4951160;28;20045;-87
2022/02/22 11:42:32;;;;;;;31.73;5.82;;;7.40;99.90;;;;;;4949742;28;20053;-88
2022/02/22 11:45:07;;;;;;;29.52;6.97;;;7.50;99.90;;;;;;4950042;28;20038;-86
2022/02/22 11:47:35;;;;;;;32.25;6.28;;;7.40;99.90;;;;;;4960487;28;20046;-89
2022/02/22 11:50:18;;;;;;;29.85;6.70;;;7.40;99.90;;;;;;4939528;28;20054;-87
2022/02/22 11:52:50;;;;;;;29.85;6.10;;;7.50;99.90;;;;;;4960596;28;20047;-86
2022/02/22 11:55:19;;;;;;;31.98;6.32;;;7.50;99.90;;;;;;4968779;28;20037;-87
2022/02/22 11:57:54;;;;;;;35.15;6.15;;;7.50;99.90;;;;;;4953789;28;20045;-90
2022/02/22 12:00:33;;;;;;;35.15;6.18;;;7.50;99.90;;;;;;4972580;28;20138;-91
2022/02/22 12:03:12;;;;;;;26.92;5.82;;;7.50;99.90;;;;;;4953121;28;20057;-88
2022/02/22 12:05:51;;;;;;;33.25;5.57;;;7.50;99.90;;;;;;4966958;28;20074;-88
2022/02/22 12:08:23;;;;;;;31.73;5.78;;;7.50;99.90;;;;;;4949894;28;20031;-89
2022/02/22 12:10:54;;;;;;;39.40;6.00;;;7.40;99.90;;;;;;4970256;28;20125;-87
2022/02/22 12:13:22;;;;;;;38.63;5.70;;;7.30;99.90;;;;;;4952164;28;20038;-88
2022/02/22 12:15:49;;;;;;;37.17;7.10;;;7.20;99.90;;;;;;4966472;28;20047;-88
2022/02/22 12:18:25;;;;;;;46.83;7.32;;;7.20;99.90;;;;;;4944806;28;20296;-88
2022/02/22 12:20:54;;;;;;;53.80;7.18;;;7.10;99.90;;;;;;4943447;28;20038;-88
2022/02/22 12:23:25;;;;;;;44.83;8.65;;;7.00;99.90;;;;;;4946314;28;20042;-87
2022/02/22 12:25:54;;;;;;;48.65;7.90;;;7.00;99.90;;;;;;4948623;28;20426;-88
2022/02/22 12:28:21;;;;;;;50.92;8.68;;;6.90;99.90;;;;;;4959253;28;20070;-87
2022/02/22 12:30:48;;;;;;;35.65;8.13;;;6.90;99.90;;;;;;4929143;29;20329;-86
2022/02/22 12:33:16;;;;;;;54.03;9.65;;;6.80;99.90;;;;;;4967407;28;20045;-87
2022/02/22 12:35:44;;;;;;;44.55;9.57;;;6.80;99.90;;;;;;4935554;28;20047;-87
2022/02/22 12:38:25;;;;;;;45.30;9.18;;;6.80;99.90;;;;;;4940506;28;20117;-88
2022/02/22 12:40:52;;;;;;;48.90;9.07;;;6.80;99.90;;;;;;4948855;28;20039;-88
2022/02/22 12:43:20;;;;;;;53.40;10.18;;;6.80;99.90;;;;;;4933139;28;20521;-90
2022/02/22 12:45:53;;;;;;;43.15;8.63;;;6.80;99.90;;;;;;4935146;28;20117;-88
2022/02/22 12:48:20;;;;;;;50.90;9.73;;;6.80;99.90;;;;;;4963457;28;20533;-88
2022/02/22 12:50:57;;;;;;;47.70;10.45;;;6.80;99.90;;;;;;4934164;28;20145;-87
2022/02/22 12:53:28;;;;;;;43.80;10.05;;;6.80;99.90;;;;;;4965260;28;20054;-88
2022/02/22 12:55:54;;;;;;;38.53;9.05;;;6.80;99.90;;;;;;4963588;28;20086;-87
2022/02/22 12:58:33;;;;;;;57.28;10.68;;;6.90;99.90;;;;;;4965758;28;20038;-89
2022/02/22 13:01:15;;;;;;;53.63;10.60;;;6.90;99.90;;;;;;4964276;28;20109;-87
2022/02/22 13:03:42;;;;;;;36.55;9.88;;;6.90;99.90;;;;;;4946986;28;20110;-87
2022/02/22 13:06:14;;;;;;;46.38;9.82;;;6.90;99.90;;;;;;4945790;28;20047;-88
2022/02/22 13:08:41;;;;;;;47.25;11.88;;;6.90;99.90;;;;;;4966345;28;20113;-90
2022/02/22 13:11:07;;;;;;;50.58;10.23;;;7.00;99.90;;;;;;4935180;28;20065;-88
2022/02/22 13:13:33;;;;;;;37.00;9.57;;;7.00;99.90;;;;;;4932431;28;20070;-86
2022/02/22 13:16:14;;;;;;;44.05;11.07;;;7.00;99.90;;;;;;4949066;28;20058;-87
2022/02/22 13:18:57;;;;;;;54.53;11.90;;;7.00;99.90;;;;;;4929916;28;20109;-88
2022/02/22 13:21:26;;;;;;;52.60;11.23;;;7.10;99.90;;;;;;4947717;28;20054;-87
2022/02/22 13:23:58;;;;;;;50.45;12.48;;;7.10;99.90;;;;;;4933191;28;20039;-89
2022/02/22 13:26:34;;;;;;;57.70;13.68;;;7.20;99.90;;;;;;4916255;28;20130;-88
2022/02/22 13:29:01;;;;;;;45.83;13.07;;;7.20;99.90;;;;;;4952508;28;20070;-89
2022/02/22 13:31:26;;;;;;;34.60;12.73;;;7.20;99.90;;;;;;4937259;28;20486;-87
2022/02/22 13:34:04;;;;;;;37.35;12.50;;;7.30;99.90;;;;;;4931675;28;20050;-89
2022/02/22 13:36:31;;;;;;;44.17;12.98;;;7.40;99.90;;;;;;4963371;28;20517;-88
2022/02/22 13:39:11;;;;;;;51.45;14.18;;;7.40;99.90;;;;;;4932807;28;20043;-88
2022/02/22 13:41:45;;;;;;;45.95;14.50;;;7.40;99.90;;;;;;4946065;28;20042;-88
2022/02/22 13:44:11;;;;;;;48.58;15.65;;;7.50;99.90;;;;;;4949476;28;20394;-87
2022/02/22 13:46:40;;;;;;;42.20;14.23;;;7.50;99.90;;;;;;4949093;28;20421;-89
2022/02/22 13:49:08;;;;;;;59.33;16.15;;;7.50;99.90;;;;;;4953315;28;20086;-89
2022/02/22 13:51:35;;;;;;;39.83;13.18;;;7.60;99.90;;;;;;4948126;28;20672;-89
2022/02/22 13:54:01;;;;;;;43.40;14.55;;;7.60;99.90;;;;;;4945634;28;20039;-88
2022/02/22 13:56:27;;;;;;;53.33;16.52;;;7.60;99.90;;;;;;4946726;28;20046;-92
2022/02/22 13:59:05;;;;;;;41.22;15.05;;;7.70;99.90;;;;;;4934040;28;20047;-89
2022/02/22 14:01:43;;;;;;;44.63;16.60;;;7.70;99.90;;;;;;4949274;28;20070;-90
2022/02/22 14:04:08;;;;;;;43.85;15.75;;;7.80;99.90;;;;;;4948467;28;20194;-90
2022/02/22 14:06:34;;;;;;;52.55;15.75;;;7.90;99.90;;;;;;4947747;28;20121;-89
2022/02/22 14:09:01;;;;;;;46.55;16.50;;;7.90;99.90;;;;;;4916506;28;20043;-89
2022/02/22 14:11:36;;;;;;;51.10;18.50;;;7.90;99.90;;;;;;4967253;28;20513;-87
2022/02/22 14:14:01;;;;;;;54.67;18.02;;;8.00;99.90;;;;;;4954236;28;20498;-88
2022/02/22 14:16:27;;;;;;;50.47;18.27;;;8.00;99.90;;;;;;4952062;28;20045;-88
2022/02/22 14:18:53;;;;;;;46.08;17.85;;;8.00;99.90;;;;;;4939528;28;20038;-87
2022/02/22 14:21:20;;;;;;;46.38;16.77;;;8.00;99.90;;;;;;4936107;28;20409;-89
2022/02/22 14:23:45;;;;;;;55.90;17.92;;;8.00;99.90;;;;;;4954535;28;20038;-88
2022/02/22 14:26:11;;;;;;;59.05;20.30;;;8.00;99.90;;;;;;4967972;28;20035;-88
2022/02/22 14:28:37;;;;;;;47.67;17.27;;;8.00;99.90;;;;;;4953931;28;20035;-88
2022/02/22 14:31:03;;;;;;;59.30;19.25;;;8.10;99.90;;;;;;4932776;28;20415;-89
2022/02/22 14:33:30;;;;;;;50.53;19.52;;;8.10;99.90;;;;;;4937579;28;20185;-88
2022/02/22 14:35:56;;;;;;;47.95;17.38;;;8.10;99.90;;;;;;4951835;28;20554;-88
2022/02/22 14:38:21;;;;;;;40.20;17.40;;;8.20;99.90;;;;;;4937698;28;20046;-87
2022/02/22 14:40:47;;;;;;;56.50;17.55;;;8.20;99.90;;;;;;4936076;28;20410;-88
2022/02/22 14:43:13;;;;;;;51.72;17.98;;;8.20;99.90;;;;;;4952329;28;20047;-88
2022/02/22 14:45:41;;;;;;;50.75;16.92;;;8.20;99.90;;;;;;4942851;28;20041;-90
2022/02/22 14:48:07;;;;;;;49.58;17.08;;;8.20;99.90;;;;;;4933204;28;20039;-88
2022/02/22 14:50:33;;;;;;;53.33;17.10;;;8.20;99.90;;;;;;4934339;28;20046;-89
2022/02/22 14:52:59;;;;;;;58.95;17.13;;;8.20;99.90;;;;;;4953323;28;20074;-89
2022/02/22 14:55:25;;;;;;;47.90;16.80;;;8.20;99.90;;;;;;4952719;28;20410;-89
2022/02/22 14:57:50;;;;;;;49.05;16.98;;;8.30;99.90;;;;;;4937719;28;20034;-90
2022/02/22 15:00:17;;;;;;;56.78;18.17;;;8.30;99.90;;;;;;4967238;28;20049;-88
2022/02/22 15:02:42;;;;;;;51.15;17.10;;;8.30;99.90;;;;;;4934960;28;20130;-89
2022/02/22 15:05:08;;;;;;;57.08;17.73;;;8.30;99.90;;;;;;4952156;28;20126;-87
2022/02/22 15:07:34;;;;;;;55.40;18.08;;;8.30;99.90;;;;;;4934241;28;20437;-90
2022/02/22 15:10:01;;;;;;;61.65;18.73;;;8.30;99.90;;;;;;4950118;28;20046;-89
2022/02/22 15:12:27;;;;;;;54.50;19.75;;;8.30;99.90;;;;;;4939951;28;20039;-89
2022/02/22 15:14:52;;;;;;;63.65;19.85;;;8.30;99.90;;;;;;4934325;28;20272;-87
2022/02/22 15:17:18;;;;;;;62.65;19.75;;;8.30;99.90;;;;;;4950089;28;20039;-88
2022/02/22 15:19:44;;;;;;;60.03;20.00;;;8.30;99.90;;;;;;4935488;28;20121;-89
2022/02/22 15:22:10;;;;;;;56.63;19.05;;;8.30;99.90;;;;;;4934780;28;20047;-89
2022/02/22 15:24:38;;;;;;;69.05;21.38;;;8.30;99.90;;;;;;4935103;28;20039;-91
2022/02/22 15:27:04;;;;;;;72.97;20.20;;;8.30;99.90;;;;;;4930666;28;20490;-91
2022/02/22 15:29:29;;;;;;;66.78;20.20;;;8.30;99.90;;;;;;4934973;28;20070;-90
2022/02/22 15:31:56;;;;;;;60.40;19.48;;;8.30;99.90;;;;;;4952141;28;20043;-89
2022/02/22 15:34:22;;;;;;;71.15;18.50;;;8.40;99.90;;;;;;4948924;28;20046;-88
2022/02/22 15:36:48;;;;;;;53.15;16.23;;;8.40;99.90;;;;;;4935983;28;20267;-90
2022/02/22 15:39:13;;;;;;;41.88;14.57;;;8.40;99.90;;;;;;4949434;28;20478;-91
2022/02/22 15:41:40;;;;;;;47.10;14.38;;;8.40;99.90;;;;;;4964421;28;20043;-90
2022/02/22 15:44:06;;;;;;;44.25;16.75;;;8.50;99.90;;;;;;4934533;28;20034;-90
2022/02/22 15:46:32;;;;;;;50.88;14.02;;;8.50;99.90;;;;;;4933539;28;20454;-91
2022/02/22 15:48:58;;;;;;;47.75;14.27;;;8.60;99.90;;;;;;4931375;28;20406;-91
2022/02/22 15:51:23;;;;;;;38.33;13.73;;;8.60;99.90;;;;;;4952806;28;20312;-89
2022/02/22 15:53:51;;;;;;;45.67;14.13;;;8.60;99.90;;;;;;4928740;29;20406;-90
2022/02/22 15:56:17;;;;;;;41.80;13.43;;;8.60;99.90;;;;;;4934625;28;20046;-91
2022/02/22 15:58:43;;;;;;;42.45;12.23;;;8.60;99.90;;;;;;4937646;28;20493;-90
2022/02/22 16:01:09;;;;;;;44.72;12.50;;;8.60;99.90;;;;;;4947325;28;20266;-91
2022/02/22 16:03:35;;;;;;;42.17;11.40;;;8.70;99.90;;;;;;4949277;28;20502;-91
2022/02/22 16:06:01;;;;;;;39.70;10.57;;;8.70;99.90;;;;;;4924861;28;20072;-89
2022/02/22 16:08:27;;;;;;;37.45;11.00;;;8.70;99.90;;;;;;4948462;28;20043;-89
2022/02/22 16:10:53;;;;;;;35.35;8.95;;;8.60;99.90;;;;;;4915849;28;20045;-90
2022/02/22 16:13:19;;;;;;;41.78;10.15;;;8.70;99.90;;;;;;4940425;28;20729;-91
2022/02/22 16:15:45;;;;;;;33.00;9.02;;;8.70;99.90;;;;;;4945797;28;20178;-91
2022/02/22 16:18:11;;;;;;;42.63;8.70;;;8.70;99.90;;;;;;4913647;28;20039;-89
2022/02/22 16:20:37;;;;;;;44.58;9.25;;;8.70;99.90;;;;;;4945505;28;20049;-92
2022/02/22 16:23:03;;;;;;;42.75;8.65;;;8.70;99.90;;;;;;4930736;28;20667;-89
2022/02/22 16:25:29;;;;;;;44.72;8.30;;;8.70;99.90;;;;;;4935169;28;20335;-91
2022/02/22 16:27:54;;;;;;;48.17;9.00;;;8.70;99.90;;;;;;4931970;28;20181;-90
2022/02/22 16:30:20;;;;;;;33.90;7.47;;;8.70;99.90;;;;;;4944586;28;20122;-90
2022/02/22 16:32:46;;;;;;;51.83;7.50;;;8.70;99.90;;;;;;4948141;28;20047;-91
2022/02/22 16:35:12;;;;;;;50.03;8.35;;;8.70;99.90;;;;;;4946637;28;20409;-89
2022/02/22 16:37:39;;;;;;;53.90;8.40;;;8.70;99.90;;;;;;4919038;28;20042;-90
2022/02/22 16:40:05;;;;;;;58.20;8.05;;;8.70;99.90;;;;;;4932144;28;20055;-92
2022/02/22 16:42:31;;;;;;;47.03;7.78;;;8.70;99.90;;;;;;4947677;28;20270;-89